Kezdőlap
METAR-TAF:

METAR-TAF

Repülőterek :

Offutt Air Force Base

Omaha, Nebraska, Amerikai Egyesült Államok

földrajzi szélesség: 41-07N, földrajzi hosszúság: 095-54W, magasság: 319 m

Jelenlegi meteorológiai megfigyelések

A jelentés 14 perccel ezelõtt készült, 17:56 UTC
Keleti szél 6 kt
Hőmérséklet 32°C
Páratartalom 49%
Légköri nyomás 1010 hPa
Látótávolság: 16.1 km
Kevés felhő 17000 lábon

METAR: KOFF 181756Z 08006KT 10SM FEW170 32/20 A2982 RMK AO2A SLP078 WND DATA ESTMD SLP/ALSTG ESTMD RVRNO $

Idő: 13:10 (18:10 UTC)


TAF: hiányzik

Meteorológiai megfigyelések és előrejelzések több, mint 4000 repülőtéren (METAR és TAF jelentéseket).

A térképen piros és sárga pontok jelzik az elérhető meteorológiai állomásokat.

Mozgassa az egeret a pont fölött, hogy megjelenjen az állomás neve.

Azután kattintson az időjárási megfigyelések és előrejelzések megtekintéséhez.

A térkép megváltoztatása: kattintson a fekete keresztel jelölt zöld gombra ráközelítéshez, a vonallal jelölt zöld gombra távolításhoz, vagy a zöld nyilakra a szomszédos térképek eléréséhez.


METAR-TAF: